createdAt,value
2022-09-02T00:00:07.658Z,995.19
2022-09-02T00:01:07.643Z,995.16
2022-09-02T00:02:07.689Z,995.16
2022-09-02T00:03:07.733Z,995.14
2022-09-02T00:04:07.638Z,995.14
2022-09-02T00:05:07.589Z,995.17
2022-09-02T00:06:07.567Z,995.17
2022-09-02T00:07:07.550Z,995.15
2022-09-02T00:08:07.546Z,995.09
2022-09-02T00:09:07.571Z,995.15
2022-09-02T00:10:07.554Z,995.11
2022-09-02T00:11:07.498Z,995.10
2022-09-02T00:12:07.487Z,995.13
2022-09-02T00:13:07.494Z,995.16
2022-09-02T00:14:07.491Z,995.09
2022-09-02T00:15:07.459Z,995.14
2022-09-02T00:16:07.505Z,995.13
2022-09-02T00:17:07.481Z,995.14
2022-09-02T00:18:07.424Z,995.14
2022-09-02T00:19:08.428Z,995.13
2022-09-02T00:20:07.412Z,995.17
2022-09-02T00:21:07.378Z,995.14
2022-09-02T00:22:07.377Z,995.17
2022-09-02T00:23:07.347Z,995.19
2022-09-02T00:24:07.358Z,995.14
2022-09-02T00:25:07.340Z,995.12
2022-09-02T00:26:07.330Z,995.10
2022-09-02T00:27:07.288Z,995.09
2022-09-02T00:28:07.285Z,995.11
2022-09-02T00:29:07.285Z,995.08
2022-09-02T00:30:07.265Z,995.05
2022-09-02T00:31:07.245Z,995.08
2022-09-02T00:32:07.336Z,995.08
2022-09-02T00:33:07.209Z,995.09
2022-09-02T00:34:07.236Z,995.08
2022-09-02T00:35:07.193Z,995.06
2022-09-02T00:36:07.185Z,995.08
2022-09-02T00:37:07.165Z,995.08
2022-09-02T00:38:07.155Z,995.06
2022-09-02T00:39:07.485Z,995.05
2022-09-02T00:40:07.165Z,995.02
2022-09-02T00:41:07.116Z,995.03
2022-09-02T00:42:07.105Z,995.03
2022-09-02T00:43:07.096Z,995.03
2022-09-02T00:44:07.114Z,995.01
2022-09-02T00:45:07.066Z,994.99
2022-09-02T00:46:07.088Z,994.94
2022-09-02T00:47:07.035Z,994.99
2022-09-02T00:48:07.036Z,994.98
2022-09-02T00:49:07.054Z,994.93
2022-09-02T00:50:07.014Z,994.98
2022-09-02T00:51:07.033Z,994.98
2022-09-02T00:52:06.975Z,994.97
2022-09-02T00:53:06.971Z,995.00
2022-09-02T00:54:06.994Z,994.95
2022-09-02T00:55:06.924Z,994.97
2022-09-02T00:56:06.915Z,995.04
2022-09-02T00:57:06.913Z,994.96
2022-09-02T00:58:09.437Z,994.98
2022-09-02T00:59:07.844Z,994.97
2022-09-02T01:00:06.863Z,994.93
2022-09-02T01:01:06.997Z,994.97
2022-09-02T01:02:06.967Z,994.96
2022-09-02T01:03:06.823Z,994.96
2022-09-02T01:04:06.833Z,994.94
2022-09-02T01:05:06.812Z,994.93
2022-09-02T01:06:06.773Z,994.90
2022-09-02T01:07:06.763Z,994.90
2022-09-02T01:08:06.772Z,994.92
2022-09-02T01:09:06.782Z,994.89
2022-09-02T01:10:06.712Z,994.87
2022-09-02T01:11:06.834Z,994.83
2022-09-02T01:12:06.706Z,994.84
2022-09-02T01:13:06.702Z,994.82
2022-09-02T01:14:06.713Z,994.86
2022-09-02T01:15:06.687Z,994.81
2022-09-02T01:16:06.687Z,994.82
2022-09-02T01:17:06.632Z,994.84
2022-09-02T01:18:06.611Z,994.83
2022-09-02T01:19:06.651Z,994.83
2022-09-02T01:20:06.592Z,994.86
2022-09-02T01:21:06.600Z,994.82
2022-09-02T01:22:06.573Z,994.79
2022-09-02T01:23:06.561Z,994.80
2022-09-02T01:24:06.541Z,994.78
2022-09-02T01:25:06.551Z,994.77
2022-09-02T01:26:06.515Z,994.79
2022-09-02T01:27:06.502Z,994.79
2022-09-02T01:28:06.497Z,994.78
2022-09-02T01:29:06.495Z,994.78
2022-09-02T01:30:06.509Z,994.77
2022-09-02T01:31:06.496Z,994.75
2022-09-02T01:32:06.440Z,994.75
2022-09-02T01:33:06.442Z,994.73
2022-09-02T01:34:06.420Z,994.73
2022-09-02T01:35:06.419Z,994.68
2022-09-02T01:36:06.394Z,994.69
2022-09-02T01:37:06.379Z,994.68
2022-09-02T01:38:06.370Z,994.67
2022-09-02T01:39:06.349Z,994.65
2022-09-02T01:40:06.390Z,994.69
2022-09-02T01:41:06.327Z,994.68
2022-09-02T01:42:06.307Z,994.66
2022-09-02T01:43:06.297Z,994.66
2022-09-02T01:44:06.280Z,994.62
2022-09-02T01:45:06.303Z,994.65
2022-09-02T01:46:06.265Z,994.64
2022-09-02T01:47:06.313Z,994.65
2022-09-02T01:48:06.237Z,994.61
2022-09-02T01:49:06.217Z,994.57
2022-09-02T01:50:06.509Z,994.62
2022-09-02T01:51:06.191Z,994.60
2022-09-02T01:52:06.194Z,994.61
2022-09-02T01:53:06.158Z,994.57
2022-09-02T01:54:06.232Z,994.56
2022-09-02T01:55:06.166Z,994.56
2022-09-02T01:56:06.130Z,994.53
2022-09-02T01:57:06.158Z,994.51
2022-09-02T01:58:06.097Z,994.53
2022-09-02T01:59:06.086Z,994.48
2022-09-02T02:00:06.100Z,994.50
2022-09-02T02:01:06.089Z,994.53
2022-09-02T02:02:06.081Z,994.49
2022-09-02T02:03:06.037Z,994.52
2022-09-02T02:04:07.548Z,994.45
2022-09-02T02:05:07.034Z,994.49
2022-09-02T02:06:05.986Z,994.46
2022-09-02T02:07:05.981Z,994.51
2022-09-02T02:08:05.965Z,994.52
2022-09-02T02:09:06.017Z,994.51
2022-09-02T02:10:05.978Z,994.45
2022-09-02T02:11:05.943Z,994.47
2022-09-02T02:12:05.919Z,994.43
2022-09-02T02:13:05.920Z,994.45
2022-09-02T02:14:05.880Z,994.44
2022-09-02T02:15:05.918Z,994.43
2022-09-02T02:16:05.884Z,994.44
2022-09-02T02:17:05.868Z,994.42
2022-09-02T02:18:05.827Z,994.40
2022-09-02T02:19:05.853Z,994.41
2022-09-02T02:20:05.798Z,994.45
2022-09-02T02:21:05.792Z,994.42
2022-09-02T02:22:06.590Z,994.43
2022-09-02T02:23:05.774Z,994.46
2022-09-02T02:24:05.854Z,994.40
2022-09-02T02:25:05.740Z,994.41
2022-09-02T02:26:05.866Z,994.42
2022-09-02T02:27:05.713Z,994.39
2022-09-02T02:28:05.698Z,994.36
2022-09-02T02:29:05.723Z,994.39
2022-09-02T02:30:05.666Z,994.35
2022-09-02T02:31:05.742Z,994.41
2022-09-02T02:32:05.668Z,994.37
2022-09-02T02:33:05.634Z,994.30
2022-09-02T02:34:05.614Z,994.35
2022-09-02T02:35:05.631Z,994.37
2022-09-02T02:36:05.596Z,994.39
2022-09-02T02:37:05.591Z,994.32
2022-09-02T02:38:05.564Z,994.30
2022-09-02T02:39:05.589Z,994.28
2022-09-02T02:40:05.665Z,994.33
2022-09-02T02:41:05.540Z,994.33
2022-09-02T02:42:05.525Z,994.28
2022-09-02T02:43:05.507Z,994.30
2022-09-02T02:44:05.527Z,994.31
2022-09-02T02:45:05.505Z,994.32
2022-09-02T02:46:05.513Z,994.33
2022-09-02T02:47:05.445Z,994.31
2022-09-02T02:48:05.427Z,994.33
2022-09-02T02:49:05.463Z,994.29
2022-09-02T02:50:05.404Z,994.32
2022-09-02T02:51:05.403Z,994.32
2022-09-02T02:52:06.322Z,994.28
2022-09-02T02:53:05.400Z,994.27
2022-09-02T02:54:05.381Z,994.26
2022-09-02T02:55:05.412Z,994.28
2022-09-02T02:56:05.335Z,994.25
2022-09-02T02:57:05.330Z,994.24
2022-09-02T02:58:05.293Z,994.24
2022-09-02T02:59:05.312Z,994.27
2022-09-02T03:00:05.294Z,994.25
2022-09-02T03:01:05.263Z,994.23
2022-09-02T03:02:05.343Z,994.24
2022-09-02T03:03:05.300Z,994.26
2022-09-02T03:04:05.251Z,994.23
2022-09-02T03:05:05.212Z,994.25
2022-09-02T03:06:05.221Z,994.27
2022-09-02T03:07:05.191Z,994.29
2022-09-02T03:08:05.170Z,994.26
2022-09-02T03:09:05.198Z,994.25
2022-09-02T03:10:05.141Z,994.23
2022-09-02T03:11:05.131Z,994.27
2022-09-02T03:12:05.111Z,994.26
2022-09-02T03:13:05.104Z,994.25
2022-09-02T03:14:05.113Z,994.25
2022-09-02T03:15:05.090Z,994.26
2022-09-02T03:16:05.137Z,994.28
2022-09-02T03:17:05.050Z,994.28
2022-09-02T03:18:05.041Z,994.27
2022-09-02T03:19:05.063Z,994.28
2022-09-02T03:20:05.040Z,994.27
2022-09-02T03:21:04.990Z,994.30
2022-09-02T03:22:04.990Z,994.24
2022-09-02T03:23:04.969Z,994.19
2022-09-02T03:24:04.969Z,994.23
2022-09-02T03:25:04.990Z,994.28
2022-09-02T03:26:04.930Z,994.27
2022-09-02T03:27:04.930Z,994.28
2022-09-02T03:28:04.937Z,994.26
2022-09-02T03:29:04.903Z,994.27
2022-09-02T03:30:04.946Z,994.27
2022-09-02T03:31:04.940Z,994.24
2022-09-02T03:32:04.856Z,994.26
2022-09-02T03:33:04.850Z,994.22
2022-09-02T03:34:04.839Z,994.28
2022-09-02T03:35:04.889Z,994.26
2022-09-02T03:36:04.858Z,994.26
2022-09-02T03:37:04.791Z,994.23
2022-09-02T03:38:04.781Z,994.24
2022-09-02T03:39:04.778Z,994.26
2022-09-02T03:40:04.855Z,994.22
2022-09-02T03:41:04.735Z,994.24
2022-09-02T03:42:05.668Z,994.23
2022-09-02T03:43:04.709Z,994.21
2022-09-02T03:44:04.697Z,994.23
2022-09-02T03:45:04.705Z,994.24
2022-09-02T03:46:04.696Z,994.24
2022-09-02T03:47:04.667Z,994.17
2022-09-02T03:48:04.660Z,994.24
2022-09-02T03:49:04.648Z,994.21
2022-09-02T03:50:04.676Z,994.19
2022-09-02T03:51:04.638Z,994.20
2022-09-02T03:52:04.587Z,994.22
2022-09-02T03:53:04.581Z,994.21
2022-09-02T03:54:04.596Z,994.16
2022-09-02T03:55:04.578Z,994.22
2022-09-02T03:56:04.540Z,994.22
2022-09-02T03:57:04.537Z,994.20
2022-09-02T03:58:08.572Z,994.20
2022-09-02T03:59:04.495Z,994.21
2022-09-02T04:00:04.527Z,994.20
2022-09-02T04:01:04.524Z,994.22
2022-09-02T04:02:04.474Z,994.18
2022-09-02T04:03:04.475Z,994.20
2022-09-02T04:04:04.436Z,994.23
2022-09-02T04:05:04.410Z,994.20
2022-09-02T04:06:04.364Z,994.20
2022-09-02T04:07:04.397Z,994.20
2022-09-02T04:08:04.399Z,994.20
2022-09-02T04:09:04.321Z,994.16
2022-09-02T04:10:04.333Z,994.17
2022-09-02T04:11:04.284Z,994.14
2022-09-02T04:12:04.335Z,994.19
2022-09-02T04:13:04.277Z,994.11
2022-09-02T04:14:04.255Z,994.18
2022-09-02T04:15:04.255Z,994.16
2022-09-02T04:16:04.275Z,994.12
2022-09-02T04:17:04.193Z,994.15
2022-09-02T04:18:04.198Z,994.14
2022-09-02T04:19:04.187Z,994.14
2022-09-02T04:20:04.225Z,994.14
2022-09-02T04:21:04.163Z,994.12
2022-09-02T04:22:04.240Z,994.12
2022-09-02T04:23:04.122Z,994.07
2022-09-02T04:24:04.115Z,994.12
2022-09-02T04:25:04.141Z,994.11
2022-09-02T04:26:04.084Z,994.09
2022-09-02T04:27:04.579Z,994.11
2022-09-02T04:28:04.082Z,994.08
2022-09-02T04:29:04.044Z,994.11
2022-09-02T04:30:04.060Z,994.06
2022-09-02T04:31:04.180Z,994.11
2022-09-02T04:32:04.072Z,994.07
2022-09-02T04:33:04.012Z,994.09
2022-09-02T04:34:03.981Z,994.06
2022-09-02T04:35:04.032Z,994.09
2022-09-02T04:36:04.977Z,994.07
2022-09-02T04:37:03.943Z,994.06
2022-09-02T04:38:03.971Z,994.08
2022-09-02T04:39:03.937Z,994.07
2022-09-02T04:40:03.969Z,994.06
2022-09-02T04:41:03.900Z,994.00
2022-09-02T04:42:03.891Z,994.05
2022-09-02T04:43:03.851Z,994.02
2022-09-02T04:44:03.862Z,993.97
2022-09-02T04:45:03.896Z,994.03
2022-09-02T04:46:03.936Z,994.04
2022-09-02T04:47:03.816Z,994.04
2022-09-02T04:48:03.798Z,994.01
2022-09-02T04:49:03.797Z,993.99
2022-09-02T04:50:03.808Z,994.04
2022-09-02T04:51:03.767Z,994.05
2022-09-02T04:52:03.752Z,994.00
2022-09-02T04:53:03.729Z,994.04
2022-09-02T04:54:03.721Z,994.04
2022-09-02T04:55:03.743Z,994.04
2022-09-02T04:56:03.701Z,994.04
2022-09-02T04:57:03.669Z,994.05
2022-09-02T04:58:03.678Z,994.05
2022-09-02T04:59:03.650Z,994.06
2022-09-02T05:00:03.670Z,994.10
2022-09-02T05:01:03.686Z,994.08
2022-09-02T05:02:03.661Z,994.09
2022-09-02T05:03:03.621Z,994.11
2022-09-02T05:04:03.651Z,994.04
2022-09-02T05:05:03.612Z,994.09
2022-09-02T05:06:03.681Z,994.09
2022-09-02T05:07:03.550Z,994.04
2022-09-02T05:08:03.538Z,994.07
2022-09-02T05:09:03.518Z,994.02
2022-09-02T05:10:03.558Z,994.02
2022-09-02T05:11:03.488Z,994.08
2022-09-02T05:12:03.480Z,994.04
2022-09-02T05:13:03.459Z,993.99
2022-09-02T05:14:03.462Z,994.03
2022-09-02T05:15:03.478Z,994.01
2022-09-02T05:16:03.480Z,994.02
2022-09-02T05:17:07.456Z,994.04
2022-09-02T05:18:03.814Z,994.03
2022-09-02T05:19:03.395Z,994.04
2022-09-02T05:20:03.420Z,994.02
2022-09-02T05:21:03.357Z,994.02
2022-09-02T05:22:03.354Z,994.01
2022-09-02T05:23:03.337Z,994.04
2022-09-02T05:24:03.337Z,994.04
2022-09-02T05:25:03.356Z,993.97
2022-09-02T05:26:03.296Z,994.00
2022-09-02T05:27:03.286Z,994.03
2022-09-02T05:28:03.268Z,994.06
2022-09-02T05:29:03.257Z,994.04
2022-09-02T05:30:03.458Z,994.05
2022-09-02T05:31:03.332Z,994.03
2022-09-02T05:32:03.226Z,994.00
2022-09-02T05:33:03.206Z,993.98
2022-09-02T05:34:03.224Z,993.99
2022-09-02T05:35:03.208Z,993.97
2022-09-02T05:36:03.179Z,993.97
2022-09-02T05:37:03.145Z,994.00
2022-09-02T05:38:03.135Z,993.96
2022-09-02T05:39:03.163Z,993.97
2022-09-02T05:40:03.134Z,993.98
2022-09-02T05:41:03.098Z,993.98
2022-09-02T05:42:03.144Z,993.97
2022-09-02T05:43:03.089Z,993.94
2022-09-02T05:44:03.673Z,993.93
2022-09-02T05:45:03.046Z,993.91
2022-09-02T05:46:03.118Z,993.92
2022-09-02T05:47:03.015Z,993.92
2022-09-02T05:48:03.004Z,993.92
2022-09-02T05:49:03.044Z,993.93
2022-09-02T05:50:03.101Z,993.94
2022-09-02T05:51:02.984Z,993.93
2022-09-02T05:52:02.961Z,993.90
2022-09-02T05:53:02.935Z,993.92
2022-09-02T05:54:02.954Z,993.85
2022-09-02T05:55:03.178Z,993.88
2022-09-02T05:56:02.940Z,993.85
2022-09-02T05:57:02.896Z,993.86
2022-09-02T05:58:02.873Z,993.85
2022-09-02T05:59:02.936Z,993.89
2022-09-02T06:00:02.871Z,993.87
2022-09-02T06:01:02.824Z,993.90
2022-09-02T06:02:02.871Z,993.88
2022-09-02T06:03:02.903Z,993.87
2022-09-02T06:04:02.848Z,993.89
2022-09-02T06:05:02.773Z,993.85
2022-09-02T06:06:06.540Z,993.85
2022-09-02T06:07:02.753Z,993.86
2022-09-02T06:08:02.749Z,993.87
2022-09-02T06:09:03.099Z,993.87
2022-09-02T06:10:02.712Z,993.90
2022-09-02T06:11:02.700Z,993.94
2022-09-02T06:12:02.701Z,993.89
2022-09-02T06:13:02.675Z,993.88
2022-09-02T06:14:02.715Z,993.85
2022-09-02T06:15:02.664Z,993.92
2022-09-02T06:16:02.735Z,993.89
2022-09-02T06:17:02.622Z,993.93
2022-09-02T06:18:02.661Z,993.87
2022-09-02T06:19:02.632Z,993.90
2022-09-02T06:20:02.584Z,993.89
2022-09-02T06:21:02.565Z,993.86
2022-09-02T06:22:02.561Z,993.86
2022-09-02T06:23:02.557Z,993.89
2022-09-02T06:24:02.554Z,993.85
2022-09-02T06:25:02.526Z,993.87
2022-09-02T06:26:02.501Z,993.86
2022-09-02T06:27:02.500Z,993.85
2022-09-02T06:28:06.865Z,993.88
2022-09-02T06:29:02.522Z,993.88
2022-09-02T06:30:02.457Z,993.88
2022-09-02T06:31:02.562Z,993.91
2022-09-02T06:32:02.451Z,993.87
2022-09-02T06:33:02.440Z,993.85
2022-09-02T06:34:02.430Z,993.82
2022-09-02T06:35:06.471Z,993.84
2022-09-02T06:36:02.372Z,993.86
2022-09-02T06:37:02.360Z,993.84
2022-09-02T06:38:02.349Z,993.87
2022-09-02T06:39:02.374Z,993.82
2022-09-02T06:40:02.323Z,993.84
2022-09-02T06:41:02.313Z,993.82
2022-09-02T06:42:02.313Z,993.85
2022-09-02T06:43:03.081Z,993.86
2022-09-02T06:44:02.300Z,993.88
2022-09-02T06:45:02.341Z,993.82
2022-09-02T06:46:02.433Z,993.82
2022-09-02T06:47:02.352Z,993.84
2022-09-02T06:48:02.222Z,993.82
2022-09-02T06:49:02.224Z,993.81
2022-09-02T06:50:02.190Z,993.84
2022-09-02T06:51:02.169Z,993.84
2022-09-02T06:52:02.159Z,993.85
2022-09-02T06:53:02.205Z,993.81
2022-09-02T06:54:02.160Z,993.83
2022-09-02T06:55:02.144Z,993.82
2022-09-02T06:56:02.119Z,993.83
2022-09-02T06:57:02.089Z,993.84
2022-09-02T06:58:06.411Z,993.84
2022-09-02T06:59:02.191Z,993.81
2022-09-02T07:00:02.633Z,993.87
2022-09-02T07:01:02.085Z,993.81
2022-09-02T07:02:02.124Z,993.81
2022-09-02T07:03:02.010Z,993.81
2022-09-02T07:04:02.039Z,993.79
2022-09-02T07:05:01.992Z,993.78
2022-09-02T07:06:01.979Z,993.76
2022-09-02T07:07:01.958Z,993.70
2022-09-02T07:08:01.969Z,993.75
2022-09-02T07:09:01.932Z,993.75
2022-09-02T07:10:01.958Z,993.72
2022-09-02T07:11:01.906Z,993.74
2022-09-02T07:12:04.782Z,993.75
2022-09-02T07:13:01.881Z,993.73
2022-09-02T07:14:01.884Z,993.69
2022-09-02T07:15:01.887Z,993.72
2022-09-02T07:16:01.867Z,993.72
2022-09-02T07:17:01.863Z,993.71
2022-09-02T07:18:01.823Z,993.73
2022-09-02T07:19:01.798Z,993.71
2022-09-02T07:20:01.846Z,993.76
2022-09-02T07:21:01.867Z,993.70
2022-09-02T07:22:01.768Z,993.72
2022-09-02T07:23:01.750Z,993.70
2022-09-02T07:24:02.687Z,993.63
2022-09-02T07:25:01.751Z,993.71
2022-09-02T07:26:02.329Z,993.65
2022-09-02T07:27:01.722Z,993.65
2022-09-02T07:28:01.733Z,993.67
2022-09-02T07:29:01.887Z,993.69
2022-09-02T07:30:01.690Z,993.58
2022-09-02T07:31:01.690Z,993.65
2022-09-02T07:32:01.641Z,993.64
2022-09-02T07:33:01.634Z,993.65
2022-09-02T07:34:01.618Z,993.64
2022-09-02T07:35:01.651Z,993.68
2022-09-02T07:36:01.586Z,993.65
2022-09-02T07:37:05.036Z,993.65
2022-09-02T07:38:02.565Z,993.65
2022-09-02T07:39:01.566Z,993.67
2022-09-02T07:40:01.570Z,993.64
2022-09-02T07:41:01.516Z,993.67
2022-09-02T07:42:01.499Z,993.59
2022-09-02T07:43:01.490Z,993.61
2022-09-02T07:44:01.468Z,993.64
2022-09-02T07:45:01.490Z,993.63
2022-09-02T07:46:01.486Z,993.65
2022-09-02T07:47:01.431Z,993.59
2022-09-02T07:48:01.408Z,993.61
2022-09-02T07:49:01.398Z,993.62
2022-09-02T07:50:19.752Z,993.58
2022-09-02T07:51:02.378Z,993.58
2022-09-02T07:52:01.359Z,993.53
2022-09-02T07:53:01.439Z,993.57
2022-09-02T07:54:01.382Z,993.63
2022-09-02T07:55:01.356Z,993.58
2022-09-02T07:56:01.308Z,993.59
2022-09-02T07:57:01.297Z,993.63
2022-09-02T07:58:01.296Z,993.65
2022-09-02T07:59:01.280Z,993.63
2022-09-02T08:00:01.278Z,993.57
2022-09-02T08:01:01.270Z,993.58
2022-09-02T08:02:01.255Z,993.58
2022-09-02T08:03:01.310Z,993.56
2022-09-02T08:04:05.561Z,993.51
2022-09-02T08:05:01.492Z,993.59
2022-09-02T08:06:01.208Z,993.55
2022-09-02T08:07:01.439Z,993.51
2022-09-02T08:08:01.290Z,993.55
2022-09-02T08:09:01.139Z,993.55
2022-09-02T08:10:01.149Z,993.56
2022-09-02T08:12:01.309Z,993.49
2022-09-02T08:13:01.200Z,993.49
2022-09-02T08:14:01.150Z,993.54
2022-09-02T08:15:01.121Z,993.51
2022-09-02T08:16:01.089Z,993.49
2022-09-02T08:17:01.161Z,993.53
2022-09-02T08:18:01.048Z,993.53
2022-09-02T08:19:01.051Z,993.54
2022-09-02T08:20:01.027Z,993.51
2022-09-02T08:21:00.983Z,993.50
2022-09-02T08:22:01.391Z,993.47
2022-09-02T08:23:10.771Z,993.49
2022-09-02T08:24:01.948Z,993.54
2022-09-02T08:25:00.951Z,993.51
2022-09-02T08:26:00.922Z,993.54
2022-09-02T08:27:00.924Z,993.54
2022-09-02T08:28:00.894Z,993.52
2022-09-02T08:29:00.874Z,993.54
2022-09-02T08:30:00.893Z,993.57
2022-09-02T08:31:00.853Z,993.53
2022-09-02T08:32:01.694Z,993.54
2022-09-02T08:33:00.822Z,993.47
2022-09-02T08:34:00.802Z,993.51
2022-09-02T08:35:00.822Z,993.51
2022-09-02T08:36:00.773Z,993.56
2022-09-02T08:37:00.791Z,993.53
2022-09-02T08:38:01.816Z,993.53
2022-09-02T08:39:00.811Z,993.46
2022-09-02T08:40:00.794Z,993.54
2022-09-02T08:41:00.724Z,993.51
2022-09-02T08:43:00.682Z,993.49
2022-09-02T08:44:00.682Z,993.47
2022-09-02T08:45:00.700Z,993.42
2022-09-02T08:46:00.696Z,993.38
2022-09-02T08:47:00.684Z,993.37
2022-09-02T08:48:00.625Z,993.36
2022-09-02T08:49:00.643Z,993.37
2022-09-02T08:50:00.594Z,993.36
2022-09-02T08:51:00.584Z,993.35
2022-09-02T08:52:01.149Z,993.36
2022-09-02T08:53:00.562Z,993.34
2022-09-02T08:54:00.574Z,993.33
2022-09-02T08:55:00.534Z,993.32
2022-09-02T08:56:00.514Z,993.33
2022-09-02T08:57:00.512Z,993.30
2022-09-02T08:58:00.599Z,993.28
2022-09-02T08:59:00.508Z,993.29
2022-09-02T09:00:00.464Z,993.30
2022-09-02T09:01:00.588Z,993.29
2022-09-02T09:02:01.001Z,993.36
2022-09-02T09:03:00.446Z,993.32
2022-09-02T09:04:00.499Z,993.29
2022-09-02T09:05:00.478Z,993.33
2022-09-02T09:06:00.405Z,993.27
2022-09-02T09:07:00.376Z,993.30
2022-09-02T09:08:00.667Z,993.27
2022-09-02T09:09:00.610Z,993.25
2022-09-02T09:10:00.332Z,993.26
2022-09-02T09:11:00.319Z,993.26
2022-09-02T09:12:00.307Z,993.22
2022-09-02T09:13:00.318Z,993.21
2022-09-02T09:14:00.467Z,993.24
2022-09-02T09:15:00.264Z,993.23
2022-09-02T09:16:00.534Z,993.21
2022-09-02T09:17:00.276Z,993.21
2022-09-02T09:18:00.357Z,993.14
2022-09-02T09:19:00.241Z,993.18
2022-09-02T09:20:00.197Z,993.17
2022-09-02T09:21:00.208Z,993.22
2022-09-02T09:22:00.279Z,993.18
2022-09-02T09:23:00.279Z,993.18
2022-09-02T09:24:00.419Z,993.16
2022-09-02T09:25:00.179Z,993.12
2022-09-02T09:26:01.023Z,993.15
2022-09-02T09:27:00.180Z,993.14
2022-09-02T09:28:00.230Z,993.12
2022-09-02T09:29:00.110Z,993.16
2022-09-02T09:30:00.081Z,993.12
2022-09-02T09:31:00.057Z,993.08
2022-09-02T09:32:00.229Z,993.01
2022-09-02T09:33:00.058Z,993.03
2022-09-02T09:34:00.137Z,993.01
2022-09-02T09:35:00.025Z,993.01
2022-09-02T09:35:59.982Z,992.99
2022-09-02T09:37:00.943Z,992.96
2022-09-02T09:38:00.067Z,992.99
2022-09-02T09:38:59.942Z,992.93
2022-09-02T09:39:59.960Z,992.94
2022-09-02T09:40:59.915Z,992.90
2022-09-02T09:41:59.899Z,992.92
2022-09-02T09:43:59.913Z,992.93
2022-09-02T09:44:59.914Z,992.91
2022-09-02T09:45:59.895Z,992.89
2022-09-02T09:46:59.845Z,992.89
2022-09-02T09:47:59.814Z,992.85
2022-09-02T09:48:59.841Z,992.83
2022-09-02T09:49:59.795Z,992.76
2022-09-02T09:50:59.785Z,992.76
2022-09-02T09:51:59.775Z,992.76
2022-09-02T09:52:59.756Z,992.80
2022-09-02T09:53:59.765Z,992.75
2022-09-02T09:54:59.736Z,992.73
2022-09-02T09:55:59.707Z,992.76
2022-09-02T09:56:59.705Z,992.70
2022-09-02T09:57:59.687Z,992.70
2022-09-02T09:58:59.717Z,992.74
2022-09-02T09:59:59.657Z,992.70
2022-09-02T10:00:59.738Z,992.74
2022-09-02T10:01:59.701Z,992.72
2022-09-02T10:02:59.635Z,992.70
2022-09-02T10:03:59.637Z,992.67
2022-09-02T10:04:59.598Z,992.62
2022-09-02T10:05:59.584Z,992.62
2022-09-02T10:06:59.568Z,992.61
2022-09-02T10:07:59.555Z,992.62
2022-09-02T10:08:59.577Z,992.60
2022-09-02T10:09:59.539Z,992.59
2022-09-02T10:10:59.518Z,992.59
2022-09-02T10:11:59.501Z,992.61
2022-09-02T10:12:59.490Z,992.58
2022-09-02T10:13:59.509Z,992.55
2022-09-02T10:14:59.460Z,992.59
2022-09-02T10:15:59.480Z,992.53
2022-09-02T10:16:59.440Z,992.56
2022-09-02T10:17:59.421Z,992.57
2022-09-02T10:18:59.454Z,992.58
2022-09-02T10:19:59.403Z,992.59
2022-09-02T10:21:13.965Z,992.62
2022-09-02T10:22:00.371Z,992.55
2022-09-02T10:23:00.668Z,992.55
2022-09-02T10:23:59.372Z,992.52
2022-09-02T10:24:59.341Z,992.55
2022-09-02T10:25:59.433Z,992.49
2022-09-02T10:26:59.314Z,992.48
2022-09-02T10:27:59.293Z,992.46
2022-09-02T10:29:02.112Z,992.43
2022-09-02T10:29:59.263Z,992.42
2022-09-02T10:30:59.255Z,992.46
2022-09-02T10:31:59.256Z,992.36
2022-09-02T10:32:59.264Z,992.39
2022-09-02T10:33:59.348Z,992.34
2022-09-02T10:34:59.205Z,992.30
2022-09-02T10:35:59.197Z,992.29
2022-09-02T10:36:59.195Z,992.29
2022-09-02T10:37:59.166Z,992.25
2022-09-02T10:38:59.183Z,992.21
2022-09-02T10:39:59.134Z,992.22
2022-09-02T10:40:59.218Z,992.18
2022-09-02T10:41:59.108Z,992.25
2022-09-02T10:42:59.105Z,992.17
2022-09-02T10:43:59.107Z,992.21
2022-09-02T10:44:59.191Z,992.21
2022-09-02T10:45:59.058Z,992.19
2022-09-02T10:46:59.089Z,992.18
2022-09-02T10:47:59.034Z,992.21
2022-09-02T10:48:59.059Z,992.17
2022-09-02T10:49:59.009Z,992.19
2022-09-02T10:50:59.000Z,992.16
2022-09-02T10:51:58.993Z,992.21
2022-09-02T10:52:58.971Z,992.17
2022-09-02T10:53:58.990Z,992.18
2022-09-02T10:54:58.944Z,992.14
2022-09-02T10:55:58.930Z,992.19
2022-09-02T10:56:58.927Z,992.20
2022-09-02T10:57:58.907Z,992.28
2022-09-02T10:59:58.879Z,992.24
2022-09-02T11:00:58.929Z,992.25
2022-09-02T11:01:58.849Z,992.29
2022-09-02T11:02:58.867Z,992.29
2022-09-02T11:03:59.378Z,992.25
2022-09-02T11:04:58.812Z,992.19
2022-09-02T11:05:58.792Z,992.22
2022-09-02T11:07:03.038Z,992.16
2022-09-02T11:07:58.777Z,992.18
2022-09-02T11:08:58.791Z,992.26
2022-09-02T11:09:58.744Z,992.24
2022-09-02T11:10:58.824Z,992.15
2022-09-02T11:12:00.293Z,992.12
2022-09-02T11:12:58.764Z,992.10
2022-09-02T11:13:58.816Z,992.08
2022-09-02T11:14:58.684Z,992.13
2022-09-02T11:15:58.710Z,992.13
2022-09-02T11:16:58.655Z,992.13
2022-09-02T11:17:58.635Z,992.05
2022-09-02T11:18:58.795Z,992.03
2022-09-02T11:19:58.725Z,992.08
2022-09-02T11:20:58.595Z,992.02
2022-09-02T11:21:58.585Z,992.06
2022-09-02T11:22:58.887Z,992.04
2022-09-02T11:23:59.227Z,992.08
2022-09-02T11:24:58.558Z,992.04
2022-09-02T11:25:58.527Z,992.06
2022-09-02T11:26:58.530Z,992.09
2022-09-02T11:27:58.507Z,992.07
2022-09-02T11:28:58.534Z,992.05
2022-09-02T11:29:58.611Z,992.04
2022-09-02T11:30:58.471Z,992.03
2022-09-02T11:31:58.699Z,992.00
2022-09-02T11:32:58.458Z,992.05
2022-09-02T11:33:58.478Z,992.04
2022-09-02T11:34:58.458Z,991.99
2022-09-02T11:35:58.399Z,992.00
2022-09-02T11:36:58.402Z,991.98
2022-09-02T11:37:58.369Z,991.95
2022-09-02T11:38:58.599Z,991.98
2022-09-02T11:40:11.708Z,991.95
2022-09-02T11:41:59.402Z,991.94
2022-09-02T11:42:58.343Z,991.97
2022-09-02T11:43:58.297Z,991.90
2022-09-02T11:44:58.385Z,991.98
2022-09-02T11:45:58.316Z,991.96
2022-09-02T11:46:58.327Z,991.92
2022-09-02T11:47:58.245Z,991.96
2022-09-02T11:48:58.232Z,991.97
2022-09-02T11:49:58.279Z,991.95
2022-09-02T11:50:58.201Z,991.94
2022-09-02T11:51:58.193Z,991.91
2022-09-02T11:52:58.220Z,991.93
2022-09-02T11:53:58.163Z,991.87
2022-09-02T11:55:02.380Z,991.89
2022-09-02T11:55:58.140Z,991.86
2022-09-02T11:56:58.113Z,991.92
2022-09-02T11:57:58.773Z,991.91
2022-09-02T11:58:58.291Z,991.84
2022-09-02T11:59:58.113Z,991.85
2022-09-02T12:00:58.063Z,991.90
2022-09-02T12:01:58.272Z,991.89
2022-09-02T12:03:07.885Z,991.85
2022-09-02T12:05:01.575Z,991.91
2022-09-02T12:06:01.256Z,991.92
2022-09-02T12:06:58.263Z,991.88
2022-09-02T12:07:58.726Z,991.91
2022-09-02T12:08:59.128Z,991.88
2022-09-02T12:09:58.211Z,991.87
2022-09-02T12:10:58.181Z,991.81
2022-09-02T12:12:01.286Z,991.84
2022-09-02T12:12:58.487Z,991.80
2022-09-02T12:14:04.065Z,991.75
2022-09-02T12:14:58.906Z,991.78
2022-09-02T12:15:57.911Z,991.74
2022-09-02T12:16:57.856Z,991.75
2022-09-02T12:17:57.847Z,991.72
2022-09-02T12:18:57.841Z,991.69
2022-09-02T12:19:57.848Z,991.66
2022-09-02T12:20:57.809Z,991.70
2022-09-02T12:21:58.572Z,991.71
2022-09-02T12:22:57.808Z,991.66
2022-09-02T12:23:57.770Z,991.64
2022-09-02T12:24:57.791Z,991.62
2022-09-02T12:25:57.739Z,991.60
2022-09-02T12:26:58.150Z,991.61
2022-09-02T12:27:57.800Z,991.63
2022-09-02T12:28:57.701Z,991.66
2022-09-02T12:29:57.717Z,991.62
2022-09-02T12:30:57.702Z,991.59
2022-09-02T12:31:57.661Z,991.50
2022-09-02T12:32:57.673Z,991.53
2022-09-02T12:33:57.642Z,991.58